sensor_id;sensor_type;location;lat;lon;timestamp;pressure;altitude;pressure_sealevel;temperature;humidity
62402;BME280;48440;51.224;22.506;2023-02-02T00:01:47;98024.97;;;2.04;81.94
62402;BME280;48440;51.224;22.506;2023-02-02T00:04:22;98017.41;;;2.01;82.27
62402;BME280;48440;51.224;22.506;2023-02-02T00:06:48;98011.25;;;2.00;82.38
62402;BME280;48440;51.224;22.506;2023-02-02T00:09:16;98014.72;;;2.01;82.29
62402;BME280;48440;51.224;22.506;2023-02-02T00:11:43;98009.59;;;1.99;82.34
62402;BME280;48440;51.224;22.506;2023-02-02T00:14:09;98003.22;;;2.00;82.41
62402;BME280;48440;51.224;22.506;2023-02-02T00:16:40;98010.44;;;2.00;82.05
62402;BME280;48440;51.224;22.506;2023-02-02T00:19:13;98006.13;;;1.99;82.19
62402;BME280;48440;51.224;22.506;2023-02-02T00:21:39;98006.34;;;1.97;82.64
62402;BME280;48440;51.224;22.506;2023-02-02T00:24:06;98006.13;;;1.99;82.44
62402;BME280;48440;51.224;22.506;2023-02-02T00:26:33;98000.91;;;2.04;82.42
62402;BME280;48440;51.224;22.506;2023-02-02T00:28:58;98001.25;;;2.08;82.21
62402;BME280;48440;51.224;22.506;2023-02-02T00:31:24;97993.69;;;2.04;81.90
62402;BME280;48440;51.224;22.506;2023-02-02T00:33:50;97993.44;;;2.06;82.65
62402;BME280;48440;51.224;22.506;2023-02-02T00:36:16;97990.78;;;2.06;82.73
62402;BME280;48440;51.224;22.506;2023-02-02T00:38:42;97994.25;;;2.07;82.23
62402;BME280;48440;51.224;22.506;2023-02-02T00:41:08;97994.81;;;2.09;82.62
62402;BME280;48440;51.224;22.506;2023-02-02T00:43:33;97998.56;;;2.08;82.65
62402;BME280;48440;51.224;22.506;2023-02-02T00:45:59;97995.41;;;2.11;82.43
62402;BME280;48440;51.224;22.506;2023-02-02T00:48:25;97997.03;;;2.12;82.32
62402;BME280;48440;51.224;22.506;2023-02-02T00:50:51;97990.63;;;2.13;82.48
62402;BME280;48440;51.224;22.506;2023-02-02T00:53:17;97993.09;;;2.14;82.16
62402;BME280;48440;51.224;22.506;2023-02-02T00:55:43;97993.44;;;2.18;81.99
62402;BME280;48440;51.224;22.506;2023-02-02T00:58:08;97984.81;;;2.16;81.61
62402;BME280;48440;51.224;22.506;2023-02-02T01:00:34;97977.72;;;2.10;81.60
62402;BME280;48440;51.224;22.506;2023-02-02T01:02:59;97985.41;;;2.06;82.31
62402;BME280;48440;51.224;22.506;2023-02-02T01:05:29;97978.75;;;2.09;81.86
62402;BME280;48440;51.224;22.506;2023-02-02T01:07:55;97981.44;;;2.09;82.51
62402;BME280;48440;51.224;22.506;2023-02-02T01:10:20;97974.81;;;2.11;82.23
62402;BME280;48440;51.224;22.506;2023-02-02T01:12:46;97975.63;;;2.12;82.25
62402;BME280;48440;51.224;22.506;2023-02-02T01:15:12;97972.13;;;2.11;82.06
62402;BME280;48440;51.224;22.506;2023-02-02T01:17:38;97969.13;;;2.08;82.27
62402;BME280;48440;51.224;22.506;2023-02-02T01:20:05;97975.03;;;2.10;82.20
62402;BME280;48440;51.224;22.506;2023-02-02T01:22:31;97971.31;;;2.11;82.02
62402;BME280;48440;51.224;22.506;2023-02-02T01:24:58;97962.97;;;2.07;82.09
62402;BME280;48440;51.224;22.506;2023-02-02T01:27:24;97968.41;;;2.12;82.01
62402;BME280;48440;51.224;22.506;2023-02-02T01:29:49;97953.97;;;2.13;82.04
62402;BME280;48440;51.224;22.506;2023-02-02T01:32:15;97952.81;;;2.09;82.08
62402;BME280;48440;51.224;22.506;2023-02-02T01:34:41;97956.31;;;2.10;82.27
62402;BME280;48440;51.224;22.506;2023-02-02T01:37:08;97950.50;;;2.13;82.32
62402;BME280;48440;51.224;22.506;2023-02-02T01:39:34;97946.78;;;2.14;81.98
62402;BME280;48440;51.224;22.506;2023-02-02T01:41:59;97946.53;;;2.15;81.93
62402;BME280;48440;51.224;22.506;2023-02-02T01:47:25;97952.81;;;2.21;81.81
62402;BME280;48440;51.224;22.506;2023-02-02T01:49:52;97947.47;;;2.21;81.84
62402;BME280;48440;51.224;22.506;2023-02-02T01:52:21;97951.19;;;2.20;81.75
62402;BME280;48440;51.224;22.506;2023-02-02T01:54:51;97947.00;;;2.24;81.38
62402;BME280;48440;51.224;22.506;2023-02-02T01:57:30;97944.34;;;2.24;81.60
62402;BME280;48440;51.224;22.506;2023-02-02T01:59:59;97949.69;;;2.24;81.25
62402;BME280;48440;51.224;22.506;2023-02-02T02:02:28;97947.00;;;2.24;81.75
62402;BME280;48440;51.224;22.506;2023-02-02T02:04:55;97955.28;;;2.22;81.95
62402;BME280;48440;51.224;22.506;2023-02-02T02:07:21;97955.03;;;2.24;82.17
62402;BME280;48440;51.224;22.506;2023-02-02T02:09:47;97950.50;;;2.24;81.52
62402;BME280;48440;51.224;22.506;2023-02-02T02:12:14;97951.66;;;2.28;81.38
62402;BME280;48440;51.224;22.506;2023-02-02T02:14:42;97950.63;;;2.29;81.41
62402;BME280;48440;51.224;22.506;2023-02-02T02:23:32;97952.13;;;2.25;80.97
62402;BME280;48440;51.224;22.506;2023-02-02T02:43:24;97956.66;;;2.25;81.69
62402;BME280;48440;51.224;22.506;2023-02-02T02:45:52;97959.94;;;2.27;81.95
62402;BME280;48440;51.224;22.506;2023-02-02T02:48:18;97954.81;;;2.25;82.06
62402;BME280;48440;51.224;22.506;2023-02-02T02:50:43;97949.56;;;2.30;81.93
62402;BME280;48440;51.224;22.506;2023-02-02T02:53:14;97960.06;;;2.32;81.86
62402;BME280;48440;51.224;22.506;2023-02-02T02:56:03;97965.16;;;2.33;81.37
62402;BME280;48440;51.224;22.506;2023-02-02T02:58:57;97968.09;;;2.32;81.54
62402;BME280;48440;51.224;22.506;2023-02-02T03:01:35;97960.28;;;2.30;81.78
62402;BME280;48440;51.224;22.506;2023-02-02T03:06:41;97959.22;;;2.31;81.22
62402;BME280;48440;51.224;22.506;2023-02-02T03:09:14;97961.91;;;2.31;81.57
62402;BME280;48440;51.224;22.506;2023-02-02T03:11:43;97964.59;;;2.31;81.47
62402;BME280;48440;51.224;22.506;2023-02-02T03:14:08;97958.41;;;2.31;81.51
62402;BME280;48440;51.224;22.506;2023-02-02T03:16:37;97962.16;;;2.30;82.00
62402;BME280;48440;51.224;22.506;2023-02-02T03:19:04;97972.03;;;2.29;82.23
62402;BME280;48440;51.224;22.506;2023-02-02T03:21:31;97974.13;;;2.27;82.29
62402;BME280;48440;51.224;22.506;2023-02-02T03:23:57;97965.88;;;2.29;82.45
62402;BME280;48440;51.224;22.506;2023-02-02T03:26:22;97978.78;;;2.32;81.78
62402;BME280;48440;51.224;22.506;2023-02-02T03:28:50;97978.44;;;2.28;82.22
62402;BME280;48440;51.224;22.506;2023-02-02T03:31:16;97967.25;;;2.31;82.08
62402;BME280;48440;51.224;22.506;2023-02-02T03:33:43;97971.81;;;2.31;81.69
62402;BME280;48440;51.224;22.506;2023-02-02T03:36:08;97974.47;;;2.31;81.71
62402;BME280;48440;51.224;22.506;2023-02-02T03:38:34;97974.47;;;2.31;81.44
62402;BME280;48440;51.224;22.506;2023-02-02T03:40:59;97977.41;;;2.29;81.93
62402;BME280;48440;51.224;22.506;2023-02-02T03:43:25;97975.28;;;2.31;81.62
62402;BME280;48440;51.224;22.506;2023-02-02T03:45:58;97976.13;;;2.32;81.56
62402;BME280;48440;51.224;22.506;2023-02-02T03:48:24;97975.28;;;2.31;81.01
62402;BME280;48440;51.224;22.506;2023-02-02T03:50:50;97967.03;;;2.33;80.82
62402;BME280;48440;51.224;22.506;2023-02-02T03:53:16;97975.28;;;2.31;81.01
62402;BME280;48440;51.224;22.506;2023-02-02T03:55:41;97968.63;;;2.34;81.31
62402;BME280;48440;51.224;22.506;2023-02-02T03:58:06;97966.78;;;2.34;80.81
62402;BME280;48440;51.224;22.506;2023-02-02T04:00:32;97956.88;;;2.35;80.72
62402;BME280;48440;51.224;22.506;2023-02-02T04:02:58;97965.16;;;2.33;81.13
62402;BME280;48440;51.224;22.506;2023-02-02T04:05:23;97961.34;;;2.29;81.10
62402;BME280;48440;51.224;22.506;2023-02-02T04:07:49;97965.41;;;2.32;80.89
62402;BME280;48440;51.224;22.506;2023-02-02T04:10:14;97970.75;;;2.32;81.20
62402;BME280;48440;51.224;22.506;2023-02-02T04:12:39;97972.38;;;2.33;81.10
62402;BME280;48440;51.224;22.506;2023-02-02T04:15:06;97971.31;;;2.34;81.26
62402;BME280;48440;51.224;22.506;2023-02-02T04:17:31;97973.66;;;2.30;81.44
62402;BME280;48440;51.224;22.506;2023-02-02T04:19:57;97963.19;;;2.29;81.39
62402;BME280;48440;51.224;22.506;2023-02-02T04:22:23;97965.28;;;2.27;81.64
62402;BME280;48440;51.224;22.506;2023-02-02T04:24:49;97971.69;;;2.26;81.65
62402;BME280;48440;51.224;22.506;2023-02-02T04:27:14;97979.13;;;2.24;81.75
62402;BME280;48440;51.224;22.506;2023-02-02T04:29:40;97970.28;;;2.23;82.00
62402;BME280;48440;51.224;22.506;2023-02-02T04:32:05;97981.47;;;2.20;81.75
62402;BME280;48440;51.224;22.506;2023-02-02T04:34:31;97984.94;;;2.21;82.46
62402;BME280;48440;51.224;22.506;2023-02-02T04:36:56;97979.13;;;2.24;82.02
62402;BME280;48440;51.224;22.506;2023-02-02T04:39:22;97985.19;;;2.19;81.86
62402;BME280;48440;51.224;22.506;2023-02-02T04:41:47;97986.09;;;2.13;82.13
62402;BME280;48440;51.224;22.506;2023-02-02T04:44:14;97981.78;;;2.12;82.03
62402;BME280;48440;51.224;22.506;2023-02-02T04:46:42;97992.28;;;2.14;81.66
62402;BME280;48440;51.224;22.506;2023-02-02T04:49:09;98000.88;;;2.16;81.48
62402;BME280;48440;51.224;22.506;2023-02-02T04:51:36;98004.03;;;2.13;81.21
62402;BME280;48440;51.224;22.506;2023-02-02T04:54:02;98005.28;;;2.10;81.63
62402;BME280;48440;51.224;22.506;2023-02-02T04:56:28;98002.38;;;2.12;81.68
62402;BME280;48440;51.224;22.506;2023-02-02T04:58:54;98008.78;;;2.11;80.87
62402;BME280;48440;51.224;22.506;2023-02-02T05:01:20;98008.69;;;2.06;81.47
62402;BME280;48440;51.224;22.506;2023-02-02T05:03:46;98006.34;;;2.09;81.25
62402;BME280;48440;51.224;22.506;2023-02-02T05:06:12;98011.38;;;2.06;81.93
62402;BME280;48440;51.224;22.506;2023-02-02T05:08:38;98009.50;;;2.06;81.71
62402;BME280;48440;51.224;22.506;2023-02-02T05:11:12;98012.75;;;2.08;81.68
62402;BME280;48440;51.224;22.506;2023-02-02T05:13:39;98013.56;;;2.09;81.99
62402;BME280;48440;51.224;22.506;2023-02-02T05:16:05;98022.16;;;2.11;81.96
62402;BME280;48440;51.224;22.506;2023-02-02T05:18:31;98019.84;;;2.14;81.77
62402;BME280;48440;51.224;22.506;2023-02-02T05:21:01;98025.19;;;2.14;81.97
62402;BME280;48440;51.224;22.506;2023-02-02T05:23:27;98035.69;;;2.16;82.05
62402;BME280;48440;51.224;22.506;2023-02-02T05:25:53;98035.00;;;2.20;81.75
62402;BME280;48440;51.224;22.506;2023-02-02T05:28:22;98030.22;;;2.22;81.57
62402;BME280;48440;51.224;22.506;2023-02-02T05:30:48;98037.22;;;2.23;81.84
62402;BME280;48440;51.224;22.506;2023-02-02T05:33:15;98033.72;;;2.23;81.16
62402;BME280;48440;51.224;22.506;2023-02-02T05:35:44;98046.28;;;2.22;81.54
62402;BME280;48440;51.224;22.506;2023-02-02T05:38:10;98038.47;;;2.21;81.77
62402;BME280;48440;51.224;22.506;2023-02-02T05:40:35;98038.25;;;2.22;82.19
62402;BME280;48440;51.224;22.506;2023-02-02T05:43:01;98047.91;;;2.23;82.04
62402;BME280;48440;51.224;22.506;2023-02-02T05:45:26;98047.31;;;2.21;81.73
62402;BME280;48440;51.224;22.506;2023-02-02T05:47:55;98052.00;;;2.26;81.62
62402;BME280;48440;51.224;22.506;2023-02-02T05:50:20;98053.84;;;2.25;81.65
62402;BME280;48440;51.224;22.506;2023-02-02T05:52:47;98046.63;;;2.26;81.83
62402;BME280;48440;51.224;22.506;2023-02-02T05:55:13;98050.94;;;2.27;81.92
62402;BME280;48440;51.224;22.506;2023-02-02T05:57:38;98052.81;;;2.26;81.34
62402;BME280;48440;51.224;22.506;2023-02-02T06:00:04;98052.59;;;2.28;81.38
62402;BME280;48440;51.224;22.506;2023-02-02T06:02:30;98057.34;;;2.26;80.97
62402;BME280;48440;51.224;22.506;2023-02-02T06:04:55;98062.47;;;2.27;81.21
62402;BME280;48440;51.224;22.506;2023-02-02T06:07:21;98055.50;;;2.26;81.21
62402;BME280;48440;51.224;22.506;2023-02-02T06:09:46;98058.53;;;2.30;80.73
62402;BME280;48440;51.224;22.506;2023-02-02T06:12:12;98055.50;;;2.26;81.05
62402;BME280;48440;51.224;22.506;2023-02-02T06:14:38;98064.94;;;2.29;81.57
62402;BME280;48440;51.224;22.506;2023-02-02T06:17:03;98062.84;;;2.31;81.13
62402;BME280;48440;51.224;22.506;2023-02-02T06:19:31;98061.44;;;2.28;81.15
62402;BME280;48440;51.224;22.506;2023-02-02T06:21:56;98061.44;;;2.28;81.30
62402;BME280;48440;51.224;22.506;2023-02-02T06:24:22;98062.47;;;2.27;81.17
62402;BME280;48440;51.224;22.506;2023-02-02T06:26:48;98065.38;;;2.26;81.32
62402;BME280;48440;51.224;22.506;2023-02-02T06:29:14;98067.00;;;2.27;80.88
62402;BME280;48440;51.224;22.506;2023-02-02T06:31:40;98066.19;;;2.26;81.37
62402;BME280;48440;51.224;22.506;2023-02-02T06:34:05;98061.44;;;2.28;81.39
62402;BME280;48440;51.224;22.506;2023-02-02T06:36:31;98058.53;;;2.30;81.01
62402;BME280;48440;51.224;22.506;2023-02-02T06:38:56;98066.56;;;2.30;81.01
62402;BME280;48440;51.224;22.506;2023-02-02T06:41:23;98075.16;;;2.32;81.13
62402;BME280;48440;51.224;22.506;2023-02-02T06:43:49;98070.88;;;2.31;80.99
62402;BME280;48440;51.224;22.506;2023-02-02T06:46:15;98072.50;;;2.32;81.13
62402;BME280;48440;51.224;22.506;2023-02-02T06:48:41;98072.25;;;2.33;80.73
62402;BME280;48440;51.224;22.506;2023-02-02T06:51:07;98069.09;;;2.36;80.45
62402;BME280;48440;51.224;22.506;2023-02-02T06:53:33;98073.06;;;2.34;80.71
62402;BME280;48440;51.224;22.506;2023-02-02T06:56:01;98072.81;;;2.35;80.92
62402;BME280;48440;51.224;22.506;2023-02-02T06:58:28;98076.09;;;2.37;80.69
62402;BME280;48440;51.224;22.506;2023-02-02T07:00:54;98074.00;;;2.39;80.37
62402;BME280;48440;51.224;22.506;2023-02-02T07:03:20;98082.84;;;2.40;80.61
62402;BME280;48440;51.224;22.506;2023-02-02T07:05:47;98075.41;;;2.42;80.22
62402;BME280;48440;51.224;22.506;2023-02-02T07:08:13;98071.91;;;2.42;80.19
62402;BME280;48440;51.224;22.506;2023-02-02T07:10:39;98073.75;;;2.41;80.65
62402;BME280;48440;51.224;22.506;2023-02-02T07:13:05;98078.44;;;2.46;80.22
62402;BME280;48440;51.224;22.506;2023-02-02T07:15:32;98074.69;;;2.47;79.96
62402;BME280;48440;51.224;22.506;2023-02-02T07:17:58;98080.88;;;2.47;80.01
62402;BME280;48440;51.224;22.506;2023-02-02T07:20:24;98077.75;;;2.50;79.68
62402;BME280;48440;51.224;22.506;2023-02-02T07:22:49;98079.81;;;2.48;79.95
62402;BME280;48440;51.224;22.506;2023-02-02T07:25:14;98080.88;;;2.47;79.95
62402;BME280;48440;51.224;22.506;2023-02-02T07:27:40;98085.19;;;2.48;79.63
62402;BME280;48440;51.224;22.506;2023-02-02T07:30:06;98081.00;;;2.52;79.58
62402;BME280;48440;51.224;22.506;2023-02-02T07:32:32;98084.03;;;2.56;79.35
62402;BME280;48440;51.224;22.506;2023-02-02T07:34:57;98084.63;;;2.58;79.58
62402;BME280;48440;51.224;22.506;2023-02-02T07:37:23;98087.63;;;2.61;79.78
62402;BME280;48440;51.224;22.506;2023-02-02T07:39:48;98090.88;;;2.63;79.00
62402;BME280;48440;51.224;22.506;2023-02-02T07:42:13;98099.75;;;2.76;79.12
62402;BME280;48440;51.224;22.506;2023-02-02T07:44:39;98094.63;;;2.86;78.79
62402;BME280;48440;51.224;22.506;2023-02-02T07:47:04;98098.44;;;3.01;77.76
62402;BME280;48440;51.224;22.506;2023-02-02T07:49:30;98101.94;;;3.02;77.81
62402;BME280;48440;51.224;22.506;2023-02-02T07:51:56;98104.63;;;3.02;77.70
62402;BME280;48440;51.224;22.506;2023-02-02T07:54:22;98098.69;;;3.00;76.92
62402;BME280;48440;51.224;22.506;2023-02-02T07:56:47;98099.50;;;3.00;76.83
62402;BME280;48440;51.224;22.506;2023-02-02T07:59:13;98100.19;;;3.08;76.90
62402;BME280;48440;51.224;22.506;2023-02-02T08:01:38;98091.69;;;3.11;76.49
62402;BME280;48440;51.224;22.506;2023-02-02T08:04:03;98092.81;;;3.15;76.58
62402;BME280;48440;51.224;22.506;2023-02-02T08:06:31;98095.19;;;3.11;76.60
62402;BME280;48440;51.224;22.506;2023-02-02T08:08:59;98094.38;;;3.11;76.10
62402;BME280;48440;51.224;22.506;2023-02-02T08:11:25;98094.94;;;3.01;76.68
62402;BME280;48440;51.224;22.506;2023-02-02T08:13:53;98098.69;;;3.00;76.67
62402;BME280;48440;51.224;22.506;2023-02-02T08:16:20;98108.59;;;2.99;76.41
62402;BME280;48440;51.224;22.506;2023-02-02T08:18:46;98092.16;;;2.96;76.10
62402;BME280;48440;51.224;22.506;2023-02-02T08:21:12;98093.91;;;3.02;76.45
62402;BME280;48440;51.224;22.506;2023-02-02T08:23:40;98093.16;;;3.18;76.20
62402;BME280;48440;51.224;22.506;2023-02-02T08:26:23;98093.44;;;3.45;75.55
62402;BME280;48440;51.224;22.506;2023-02-02T08:28:58;98088.72;;;3.64;75.84
62402;BME280;48440;51.224;22.506;2023-02-02T08:31:30;98084.56;;;3.56;74.72
62402;BME280;48440;51.224;22.506;2023-02-02T08:33:57;98083.75;;;3.56;74.93
62402;BME280;48440;51.224;22.506;2023-02-02T08:36:25;98081.06;;;3.56;74.26
62402;BME280;48440;51.224;22.506;2023-02-02T08:38:51;98079.13;;;3.39;74.98
62402;BME280;48440;51.224;22.506;2023-02-02T08:41:18;98077.06;;;3.30;75.68
62402;BME280;48440;51.224;22.506;2023-02-02T08:43:44;98085.81;;;3.25;76.05
62402;BME280;48440;51.224;22.506;2023-02-02T08:46:12;98077.44;;;3.22;76.53
62402;BME280;48440;51.224;22.506;2023-02-02T08:48:37;98081.03;;;3.16;77.37
62402;BME280;48440;51.224;22.506;2023-02-02T08:51:05;98076.97;;;3.13;77.35
62402;BME280;48440;51.224;22.506;2023-02-02T08:53:31;98092.63;;;3.04;76.93
62402;BME280;48440;51.224;22.506;2023-02-02T08:56:14;98083.41;;;3.00;77.41
62402;BME280;48440;51.224;22.506;2023-02-02T08:58:44;98090.28;;;2.96;78.23
62402;BME280;48440;51.224;22.506;2023-02-02T09:01:16;98095.53;;;2.91;77.49
62402;BME280;48440;51.224;22.506;2023-02-02T09:03:42;98096.16;;;2.82;78.07
62402;BME280;48440;51.224;22.506;2023-02-02T09:06:13;98096.03;;;2.77;79.32
62402;BME280;48440;51.224;22.506;2023-02-02T09:08:39;98092.53;;;2.76;79.43
62402;BME280;48440;51.224;22.506;2023-02-02T09:11:15;98089.38;;;2.67;80.17
62402;BME280;48440;51.224;22.506;2023-02-02T09:13:42;98089.84;;;2.64;80.92
62402;BME280;48440;51.224;22.506;2023-02-02T09:16:11;98084.63;;;2.58;80.98
62402;BME280;48440;51.224;22.506;2023-02-02T09:18:38;98081.22;;;2.51;81.28
62402;BME280;48440;51.224;22.506;2023-02-02T09:21:06;98074.81;;;2.52;81.40
62402;BME280;48440;51.224;22.506;2023-02-02T09:23:33;98080.19;;;2.52;81.25
62402;BME280;48440;51.224;22.506;2023-02-02T09:26:19;98075.53;;;2.47;81.82
62402;BME280;48440;51.224;22.506;2023-02-02T09:28:51;98079.00;;;2.48;82.30
62402;BME280;48440;51.224;22.506;2023-02-02T09:31:17;98074.25;;;2.50;81.61
62402;BME280;48440;51.224;22.506;2023-02-02T09:33:43;98069.38;;;2.58;81.25
62402;BME280;48440;51.224;22.506;2023-02-02T09:36:22;98069.25;;;2.53;81.58
62402;BME280;48440;51.224;22.506;2023-02-02T09:38:49;98067.16;;;2.55;81.74
62402;BME280;48440;51.224;22.506;2023-02-02T09:49:38;98060.25;;;2.48;81.78
62402;BME280;48440;51.224;22.506;2023-02-02T09:52:13;98062.59;;;2.44;82.00
62402;BME280;48440;51.224;22.506;2023-02-02T09:54:44;98057.69;;;2.41;82.41
62402;BME280;48440;51.224;22.506;2023-02-02T09:57:22;98053.97;;;2.42;82.79
62402;BME280;48440;51.224;22.506;2023-02-02T09:59:50;98046.28;;;2.46;82.44
62402;BME280;48440;51.224;22.506;2023-02-02T10:02:17;98052.00;;;2.49;82.57
62402;BME280;48440;51.224;22.506;2023-02-02T10:04:49;98044.78;;;2.50;83.05
62402;BME280;48440;51.224;22.506;2023-02-02T10:07:18;98041.66;;;2.53;82.49
62402;BME280;48440;51.224;22.506;2023-02-02T10:20:43;98018.34;;;2.65;82.65
62402;BME280;48440;51.224;22.506;2023-02-02T10:24:00;98013.44;;;2.62;82.47
62402;BME280;48440;51.224;22.506;2023-02-02T10:31:58;98011.09;;;2.77;81.90
62402;BME280;48440;51.224;22.506;2023-02-02T10:40:30;98010.06;;;2.78;81.94
62402;BME280;48440;51.224;22.506;2023-02-02T10:45:34;98002.72;;;2.85;82.07
62402;BME280;48440;51.224;22.506;2023-02-02T10:48:04;98004.47;;;2.80;81.90
62402;BME280;48440;51.224;22.506;2023-02-02T10:50:31;98002.84;;;2.79;81.60
62402;BME280;48440;51.224;22.506;2023-02-02T10:53:00;98000.38;;;2.77;82.14
62402;BME280;48440;51.224;22.506;2023-02-02T10:58:06;97993.16;;;2.78;81.92
62402;BME280;48440;51.224;22.506;2023-02-02T11:03:13;97983.59;;;2.82;82.22
62402;BME280;48440;51.224;22.506;2023-02-02T11:05:38;97987.19;;;2.87;81.91
62402;BME280;48440;51.224;22.506;2023-02-02T11:08:33;97990.84;;;2.81;81.91
62402;BME280;48440;51.224;22.506;2023-02-02T11:11:17;97984.31;;;2.77;82.20
62402;BME280;48440;51.224;22.506;2023-02-02T11:16:43;97985.47;;;2.81;82.26
62402;BME280;48440;51.224;22.506;2023-02-02T11:21:51;97991.19;;;2.85;82.25
62402;BME280;48440;51.224;22.506;2023-02-02T11:25:30;97984.25;;;2.89;82.68
62402;BME280;48440;51.224;22.506;2023-02-02T11:27:27;97983.13;;;2.85;82.41
62402;BME280;48440;51.224;22.506;2023-02-02T11:29:58;97990.13;;;2.86;82.26
62402;BME280;48440;51.224;22.506;2023-02-02T11:37:33;97986.38;;;2.87;82.03
62402;BME280;48440;51.224;22.506;2023-02-02T11:42:49;97987.56;;;2.79;82.17
62402;BME280;48440;51.224;22.506;2023-02-02T11:45:45;97992.13;;;2.79;82.56
62402;BME280;48440;51.224;22.506;2023-02-02T11:50:44;97990.69;;;2.88;82.86
62402;BME280;48440;51.224;22.506;2023-02-02T11:55:46;97998.81;;;2.93;82.34
62402;BME280;48440;51.224;22.506;2023-02-02T11:58:19;97996.16;;;2.93;82.46
62402;BME280;48440;51.224;22.506;2023-02-02T12:00:48;98003.72;;;2.96;81.93
62402;BME280;48440;51.224;22.506;2023-02-02T12:03:32;98003.72;;;2.96;81.89
62402;BME280;48440;51.224;22.506;2023-02-02T12:05:58;98002.78;;;3.02;81.86
62402;BME280;48440;51.224;22.506;2023-02-02T12:08:27;98003.13;;;3.05;81.84
62402;BME280;48440;51.224;22.506;2023-02-02T12:10:59;98005.63;;;3.12;81.23
62402;BME280;48440;51.224;22.506;2023-02-02T12:16:10;98006.56;;;3.18;81.45
62402;BME280;48440;51.224;22.506;2023-02-02T12:18:55;98003.41;;;3.21;81.93
62402;BME280;48440;51.224;22.506;2023-02-02T12:24:38;98006.44;;;3.13;81.61
62402;BME280;48440;51.224;22.506;2023-02-02T12:27:34;98014.41;;;3.08;81.69
62402;BME280;48440;51.224;22.506;2023-02-02T12:30:22;98014.66;;;3.06;81.63
62402;BME280;48440;51.224;22.506;2023-02-02T12:38:43;98029.69;;;3.07;81.98
62402;BME280;48440;51.224;22.506;2023-02-02T12:46:58;98040.75;;;3.11;82.27
62402;BME280;48440;51.224;22.506;2023-02-02T12:55:00;98049.94;;;3.15;82.16
62402;BME280;48440;51.224;22.506;2023-02-02T13:05:43;98068.94;;;3.13;81.80
62402;BME280;48440;51.224;22.506;2023-02-02T13:08:30;98070.47;;;3.09;81.92
62402;BME280;48440;51.224;22.506;2023-02-02T13:11:15;98063.94;;;3.05;82.49
62402;BME280;48440;51.224;22.506;2023-02-02T13:13:59;98075.25;;;3.07;82.41
62402;BME280;48440;51.224;22.506;2023-02-02T13:16:27;98073.63;;;3.06;82.73
62402;BME280;48440;51.224;22.506;2023-02-02T13:19:19;98081.31;;;3.02;82.06
62402;BME280;48440;51.224;22.506;2023-02-02T13:21:48;98087.72;;;3.01;82.55
62402;BME280;48440;51.224;22.506;2023-02-02T13:24:23;98085.50;;;2.98;82.11
62402;BME280;48440;51.224;22.506;2023-02-02T13:26:50;98101.81;;;2.97;81.97
62402;BME280;48440;51.224;22.506;2023-02-02T13:29:32;98102.28;;;2.94;82.40
62402;BME280;48440;51.224;22.506;2023-02-02T13:34:36;98105.56;;;2.96;82.17
62402;BME280;48440;51.224;22.506;2023-02-02T13:42:56;98127.22;;;2.94;82.69
62402;BME280;48440;51.224;22.506;2023-02-02T13:45:47;98126.88;;;2.91;82.85
62402;BME280;48440;51.224;22.506;2023-02-02T13:56:54;98141.56;;;3.00;82.52
62402;BME280;48440;51.224;22.506;2023-02-02T14:02:17;98151.47;;;2.99;82.23
62402;BME280;48440;51.224;22.506;2023-02-02T14:04:59;98151.00;;;3.02;81.84
62402;BME280;48440;51.224;22.506;2023-02-02T14:07:42;98158.69;;;2.99;81.91
62402;BME280;48440;51.224;22.506;2023-02-02T14:10:31;98164.28;;;2.97;82.12
62402;BME280;48440;51.224;22.506;2023-02-02T14:15:57;98173.59;;;2.95;82.43
62402;BME280;48440;51.224;22.506;2023-02-02T14:24:36;98188.88;;;3.06;83.65
62402;BME280;48440;51.224;22.506;2023-02-02T14:27:00;98192.97;;;3.09;83.10
62402;BME280;48440;51.224;22.506;2023-02-02T14:31:55;98213.69;;;3.01;82.17
62402;BME280;48440;51.224;22.506;2023-02-02T14:34:40;98219.16;;;2.95;81.94
62402;BME280;48440;51.224;22.506;2023-02-02T14:47:58;98245.75;;;2.85;82.45
62402;BME280;48440;51.224;22.506;2023-02-02T14:56:00;98260.19;;;2.84;82.82
62402;BME280;48440;51.224;22.506;2023-02-02T15:03:48;98273.00;;;2.82;82.62
62402;BME280;48440;51.224;22.506;2023-02-02T15:20:23;98320.41;;;2.81;82.62
62402;BME280;48440;51.224;22.506;2023-02-02T15:23:01;98328.53;;;2.75;83.15
62402;BME280;48440;51.224;22.506;2023-02-02T15:25:33;98334.72;;;2.75;82.77
62402;BME280;48440;51.224;22.506;2023-02-02T15:30:36;98358.00;;;2.75;82.99
62402;BME280;48440;51.224;22.506;2023-02-02T15:33:32;98356.59;;;2.72;82.76
62402;BME280;48440;51.224;22.506;2023-02-02T15:36:04;98367.75;;;2.69;82.96
62402;BME280;48440;51.224;22.506;2023-02-02T15:38:36;98366.72;;;2.70;82.97
62402;BME280;48440;51.224;22.506;2023-02-02T15:41:20;98378.69;;;2.67;82.72
62402;BME280;48440;51.224;22.506;2023-02-02T15:43:49;98376.03;;;2.67;82.36
62402;BME280;48440;51.224;22.506;2023-02-02T15:46:19;98385.91;;;2.67;82.45
62402;BME280;48440;51.224;22.506;2023-02-02T15:49:14;98393.59;;;2.63;82.39
62402;BME280;48440;51.224;22.506;2023-02-02T15:51:51;98401.63;;;2.63;82.28
62402;BME280;48440;51.224;22.506;2023-02-02T15:54:34;98402.44;;;2.64;82.26
62402;BME280;48440;51.224;22.506;2023-02-02T15:57:02;98420.03;;;2.60;82.77
62402;BME280;48440;51.224;22.506;2023-02-02T15:59:37;98418.97;;;2.61;82.88
62402;BME280;48440;51.224;22.506;2023-02-02T16:04:36;98437.38;;;2.57;82.77
62402;BME280;48440;51.224;22.506;2023-02-02T16:07:11;98442.13;;;2.55;82.75
62402;BME280;48440;51.224;22.506;2023-02-02T16:09:38;98448.31;;;2.56;82.67
62402;BME280;48440;51.224;22.506;2023-02-02T16:12:12;98460.44;;;2.58;82.92
62402;BME280;48440;51.224;22.506;2023-02-02T16:14:40;98459.63;;;2.58;82.22
62402;BME280;48440;51.224;22.506;2023-02-02T16:17:27;98464.22;;;2.51;81.85
62402;BME280;48440;51.224;22.506;2023-02-02T16:20:00;98470.41;;;2.51;81.62
62402;BME280;48440;51.224;22.506;2023-02-02T16:22:26;98481.72;;;2.53;81.21